AirNav   Everest Fuels
 
 359 users online  

NA99 Bakko Airstrip
Walcott, North Dakota, USA

GOING TO WALCOTT?


FAA INFORMATION EFFECTIVE 16 JULY 2020

Location

FAA Identifier: NA99
Lat/Long: 46-33-01.8740N 097-01-55.3130W
46-33.031233N 097-01.921883W
46.5505206,-97.0320314
(estimated)
Elevation: 1040 ft. / 317 m (estimated)
Variation: 06E (1985)
From city: 5 miles W of WALCOTT, ND
Time zone: UTC -5 (UTC -6 during Standard Time)
Zip code: 58077

Airport Operations

Airport use: Private use. Permission required prior to landing
Activation date: 10/1982
Control tower: no
ARTCC: MINNEAPOLIS CENTER
FSS: GRAND FORKS FLIGHT SERVICE STATION
Attendance: UNATNDD
Wind indicator: yes
Segmented circle: no

Nearby radio navigation aids

VOR radial/distance  VOR name  Freq  Var
FARr202/14.3FARGO VOR/DME116.2009E
FFMr288/39.4FERGUS FALLS VOR/DME110.4005E

Airport Services

Runway Information

Runway 17/35

Dimensions: 2500 x 40 ft. / 762 x 12 m
Surface: turf
RUNWAY 17  RUNWAY 35
Traffic pattern: leftleft
Obstructions: 20 ft. bldg, 80 ft. from runwaynone

Airport Ownership and Management from official FAA records

Ownership: Privately-owned
Owner: DENNIS G. BAKKO
5935 CO RD 3
WALCOTT, ND 58077
Phone 701-469-2142
Manager: DENNIS G. BAKKO
5935 CO RD 3
WALCOTT, ND 58077
Phone (701) 200-8629

Airport Operational Statistics

Aircraft based on the field: 1
Single engine airplanes: 1
    

Additional Remarks

FOR CD CTC MINNEAPOLIS ARTCC AT 651-463-5588.

Instrument Procedures

There are no published instrument procedures at NA99.

Some nearby airports with instrument procedures:

K74 - Robert Odegaard Field Airport (6 nm N)
5N8 - Casselton Robert Miller Regional Airport (20 nm N)
KJKJ - Moorhead Municipal Airport (23 nm NE)
KFAR - Hector International Airport (24 nm N)
KBWP - Harry Stern Airport (25 nm SE)
 
Loc | Ops | Rwys | IFR | FBO | Links
Com | Nav | Svcs | Stats | Notes

Bismarck Aero Center
AirBoss

 
Area around NA99 (Bakko Airstrip)
 
Road maps at: MapQuest Bing Google
 
Aerial photo
No photo
 
Sectional chart

 
Airport distance calculator
Flying to Bakko Airstrip? Find the distance to fly.

From to NA99

Sunrise and sunset
Times for 10-Aug-2020
 Local
(UTC-5)
 Zulu
(UTC)
Morning civil twilight05:4910:49
Sunrise06:2211:22
Sunset20:4401:44
Evening civil twilight21:1802:18

Current date and time
Zulu (UTC)  10-Aug-2020 07:46:46
Local (UTC-5)  10-Aug-2020 02:46:46
 
METAR
KJKJ 
23nm NE 
100735Z AUTO 22004KT 10SM CLR 15/09 A2993 RMK AO2
KFAR 
25nm N 
100653Z 26006KT 10SM CLR 13/11 A2991 RMK AO2 SLP128 T01280106
KGWR 
32nm SW 
100735Z AUTO 27007KT 10SM CLR 12/12 A2996 RMK A01
KFFM 
40nm SE 
100735Z AUTO 32005KT 10SM CLR 15/13 A2995 RMK AO2
TAF
KFAR 
25nm N 
100520Z 1006/1106 28007KT P6SM SKC FM101600 28015G24KT P6SM FEW250 FM110200 23005KT P6SM SKC
NOTAMs
Click for the latest NOTAMs
NOTAMs are issued by the DoD/FAA and will open in a separate window not controlled by AirNav.

 

 
 

Would you like to see your business listed on this page?

 If your business provides an interesting product or service to pilots, flight crews, aircraft, or users of the Bakko Airstrip, you should consider listing it here.  To start the listing process, click on the button below
 
Add a business
 

Other Pages about Bakko Airstrip

Update a link
 
Copyright © AirNav, LLC. All rights reserved. Privacy Policy  Contact